Time;durP1;ratioP1;P1;durP2;ratioP2;P2;SDS_P1;SDS_P2;PMS_P1;PMS_P2;Temp;Humidity;BMP_temperature;BMP_pressure;BME280_temperature;BME280_humidity;BME280_pressure;Samples;Min_cycle;Max_cycle;Signal;HPM_P1;HPM_P2
2023/09/19 00:02:06;;;;;;;1.93;1.50;;;24.10;99.90;;;;;;4998566;28;20617;-64
2023/09/19 00:04:34;;;;;;;1.47;1.20;;;24.10;99.90;;;;;;4999364;28;21061;-64
2023/09/19 00:07:03;;;;;;;1.60;1.50;;;24.10;99.90;;;;;;4998120;28;20850;-64
2023/09/19 00:09:30;;;;;;;1.53;1.43;;;24.10;99.90;;;;;;5000770;28;20571;-63
2023/09/19 00:11:57;;;;;;;1.83;1.40;;;24.10;99.90;;;;;;5001908;28;21152;-63
2023/09/19 00:14:26;;;;;;;1.30;1.10;;;24.00;99.90;;;;;;5002357;28;21471;-64
2023/09/19 00:16:54;;;;;;;1.90;1.30;;;24.00;99.90;;;;;;5001020;28;20473;-64
2023/09/19 00:19:21;;;;;;;2.20;1.43;;;24.00;99.90;;;;;;5002262;28;20769;-64
2023/09/19 00:21:49;;;;;;;1.60;1.40;;;24.00;99.90;;;;;;5001693;28;20473;-64
2023/09/19 00:24:17;;;;;;;2.40;1.67;;;24.00;99.90;;;;;;5002621;28;20467;-64
2023/09/19 00:26:47;;;;;;;2.80;1.30;;;24.00;99.90;;;;;;4994699;28;20461;-63
2023/09/19 00:29:16;;;;;;;2.17;1.57;;;24.00;99.90;;;;;;4999276;28;20470;-62
2023/09/19 00:31:44;;;;;;;1.67;1.57;;;24.00;99.90;;;;;;5003612;28;20513;-64
2023/09/19 00:34:11;;;;;;;1.43;1.23;;;24.00;99.90;;;;;;4996501;28;20464;-64
2023/09/19 00:36:38;;;;;;;1.37;1.20;;;24.00;99.90;;;;;;5001527;28;20463;-64
2023/09/19 00:39:08;;;;;;;2.77;1.50;;;24.00;99.90;;;;;;5001854;28;21992;-64
2023/09/19 00:41:35;;;;;;;1.60;1.37;;;24.00;99.90;;;;;;5002994;28;20472;-64
2023/09/19 00:44:03;;;;;;;2.33;1.60;;;24.00;99.90;;;;;;4999244;28;20473;-64
2023/09/19 00:46:30;;;;;;;1.57;1.27;;;24.00;99.90;;;;;;4995370;28;20459;-64
2023/09/19 00:48:57;;;;;;;1.20;1.10;;;24.00;99.90;;;;;;5004917;28;21015;-64
2023/09/19 00:51:25;;;;;;;1.60;1.50;;;24.00;99.90;;;;;;4998705;28;21079;-64
2023/09/19 00:53:53;;;;;;;1.33;1.23;;;24.00;99.90;;;;;;5004991;28;20470;-62
2023/09/19 00:56:21;;;;;;;1.60;1.23;;;24.00;99.90;;;;;;5004239;28;21261;-64
2023/09/19 00:58:48;;;;;;;2.00;1.60;;;24.00;99.90;;;;;;5003593;28;21906;-64
2023/09/19 01:01:15;;;;;;;1.63;1.40;;;24.00;99.90;;;;;;5001780;28;21060;-64
2023/09/19 01:03:42;;;;;;;1.67;1.50;;;24.00;99.90;;;;;;5001634;28;20473;-62
2023/09/19 01:06:09;;;;;;;1.80;1.37;;;24.00;99.90;;;;;;4997588;28;21402;-62
2023/09/19 01:08:36;;;;;;;1.80;1.50;;;23.90;99.90;;;;;;5004454;28;20460;-64
2023/09/19 01:11:12;;;;;;;1.57;1.40;;;23.90;99.90;;;;;;5004167;28;20457;-64
2023/09/19 01:13:53;;;;;;;1.80;1.43;;;23.90;99.90;;;;;;5004282;28;20461;-63
2023/09/19 01:16:30;;;;;;;2.27;1.73;;;24.00;99.90;;;;;;4998375;28;20465;-62
2023/09/19 01:19:05;;;;;;;2.07;1.87;;;23.90;99.90;;;;;;5003201;28;20462;-64
2023/09/19 01:21:42;;;;;;;1.50;1.30;;;23.90;99.90;;;;;;5005211;28;20497;-61
2023/09/19 01:24:35;;;;;;;1.40;1.20;;;23.90;99.90;;;;;;5003264;28;20980;-64
2023/09/19 01:27:22;;;;;;;1.73;1.30;;;23.90;99.90;;;;;;5006153;28;20955;-63
2023/09/19 01:29:51;;;;;;;1.40;1.20;;;23.90;99.90;;;;;;5004021;28;20455;-64
2023/09/19 01:32:21;;;;;;;1.47;1.27;;;23.90;99.90;;;;;;5005619;28;20485;-64
2023/09/19 01:34:50;;;;;;;1.30;1.20;;;23.90;99.90;;;;;;5007157;28;20456;-64
2023/09/19 01:37:20;;;;;;;2.00;1.60;;;23.90;99.90;;;;;;5005210;28;20457;-64
2023/09/19 01:39:49;;;;;;;1.40;1.30;;;23.90;99.90;;;;;;5006374;28;20818;-65
2023/09/19 01:42:25;;;;;;;1.00;0.90;;;23.90;99.90;;;;;;5003294;28;20466;-63
2023/09/19 01:45:00;;;;;;;1.50;1.40;;;23.90;99.90;;;;;;5005410;28;20616;-63
2023/09/19 01:47:34;;;;;;;1.40;1.30;;;23.90;99.90;;;;;;5003532;28;20462;-63
2023/09/19 01:50:10;;;;;;;2.30;1.50;;;23.90;99.90;;;;;;5005906;28;20515;-64
2023/09/19 01:52:43;;;;;;;1.30;1.10;;;23.90;99.90;;;;;;5005115;28;20484;-64
2023/09/19 01:55:14;;;;;;;1.30;1.00;;;23.90;99.90;;;;;;5000845;28;20479;-64
2023/09/19 01:57:49;;;;;;;1.40;1.07;;;23.90;99.90;;;;;;5005244;28;20488;-63
2023/09/19 02:00:19;;;;;;;1.57;1.40;;;23.90;99.90;;;;;;5000500;28;20462;-64
2023/09/19 02:02:48;;;;;;;1.47;1.20;;;23.90;99.90;;;;;;5005784;28;20583;-64
2023/09/19 02:05:23;;;;;;;1.47;1.37;;;23.90;99.90;;;;;;5002163;28;20467;-64
2023/09/19 02:07:50;;;;;;;1.60;1.40;;;23.90;99.90;;;;;;5004636;28;20502;-64
2023/09/19 02:10:17;;;;;;;1.10;1.00;;;23.90;99.90;;;;;;5003720;28;20458;-64
2023/09/19 02:12:44;;;;;;;1.60;1.40;;;23.90;99.90;;;;;;5004933;28;20807;-64
2023/09/19 02:15:11;;;;;;;2.77;1.50;;;23.90;99.90;;;;;;4999078;28;20465;-64
2023/09/19 02:17:38;;;;;;;1.40;1.17;;;23.90;99.90;;;;;;5004710;28;20965;-64
2023/09/19 02:20:09;;;;;;;2.07;1.50;;;23.90;99.90;;;;;;5003130;28;20993;-64
2023/09/19 02:22:36;;;;;;;1.40;1.30;;;23.90;99.90;;;;;;5006108;28;20849;-64
2023/09/19 02:25:05;;;;;;;1.67;1.23;;;23.90;99.90;;;;;;5003145;28;20675;-64
2023/09/19 02:27:32;;;;;;;1.30;1.20;;;23.80;99.90;;;;;;5002428;28;20579;-64
2023/09/19 02:29:58;;;;;;;1.40;1.30;;;23.90;99.90;;;;;;5003800;28;20467;-64
2023/09/19 02:32:25;;;;;;;1.73;1.30;;;23.90;99.90;;;;;;5003329;28;21345;-64
2023/09/19 02:34:52;;;;;;;2.37;1.20;;;23.80;99.90;;;;;;5005868;28;20473;-64
2023/09/19 02:37:21;;;;;;;1.63;1.43;;;23.80;99.90;;;;;;5002629;28;20462;-64
2023/09/19 02:39:47;;;;;;;1.47;1.37;;;23.90;99.90;;;;;;5004348;28;20470;-64
2023/09/19 02:42:14;;;;;;;2.00;1.73;;;23.90;99.90;;;;;;5005239;28;20504;-64
2023/09/19 02:44:41;;;;;;;1.40;1.30;;;23.80;99.90;;;;;;5001752;28;20556;-64
2023/09/19 02:47:09;;;;;;;1.77;1.57;;;23.80;99.90;;;;;;4999800;28;20736;-64
2023/09/19 02:49:36;;;;;;;1.40;1.30;;;23.80;99.90;;;;;;5005551;28;20649;-64
2023/09/19 02:52:04;;;;;;;1.47;1.10;;;23.80;99.90;;;;;;5004493;28;20590;-64
2023/09/19 02:54:32;;;;;;;3.07;1.60;;;23.80;99.90;;;;;;5004098;28;20551;-64
2023/09/19 02:56:58;;;;;;;1.40;1.20;;;23.80;99.90;;;;;;5003012;28;20460;-64
2023/09/19 02:59:25;;;;;;;1.77;1.20;;;23.80;99.90;;;;;;5001956;28;20493;-64
2023/09/19 03:01:54;;;;;;;1.80;1.43;;;23.80;99.90;;;;;;5000955;28;20836;-64
2023/09/19 03:04:21;;;;;;;1.70;1.23;;;23.80;99.90;;;;;;5000459;28;20470;-64
2023/09/19 03:06:51;;;;;;;1.57;1.33;;;23.80;99.90;;;;;;5003718;28;20461;-64
2023/09/19 03:09:19;;;;;;;1.60;1.43;;;23.80;99.90;;;;;;5005152;28;20469;-65
2023/09/19 03:11:47;;;;;;;1.33;1.20;;;23.80;99.90;;;;;;5002596;28;21019;-64
2023/09/19 03:14:15;;;;;;;1.30;1.10;;;23.80;99.90;;;;;;5003356;28;20469;-64
2023/09/19 03:16:42;;;;;;;1.53;1.37;;;23.80;99.90;;;;;;5002332;28;20587;-64
2023/09/19 03:19:10;;;;;;;1.50;1.40;;;23.80;99.90;;;;;;5003697;28;20657;-64
2023/09/19 03:21:37;;;;;;;1.77;1.50;;;23.80;99.90;;;;;;5003081;28;20467;-64
2023/09/19 03:24:05;;;;;;;1.53;1.43;;;23.80;99.90;;;;;;5004587;28;21630;-63
2023/09/19 03:26:33;;;;;;;1.80;1.03;;;23.80;99.90;;;;;;5003689;28;21394;-63
2023/09/19 03:29:06;;;;;;;1.30;1.20;;;23.80;99.90;;;;;;5004116;28;20496;-63
2023/09/19 03:31:33;;;;;;;1.30;1.20;;;23.80;99.90;;;;;;4998148;28;20909;-63
2023/09/19 03:33:59;;;;;;;1.80;1.40;;;23.80;99.90;;;;;;5005217;28;20542;-63
2023/09/19 03:36:27;;;;;;;1.47;1.13;;;23.80;99.90;;;;;;5002608;28;20467;-63
2023/09/19 03:38:54;;;;;;;1.10;1.00;;;23.80;99.90;;;;;;5001842;28;20463;-64
2023/09/19 03:41:21;;;;;;;1.70;1.23;;;23.80;99.90;;;;;;5001328;28;20474;-63
2023/09/19 03:43:48;;;;;;;1.30;1.03;;;23.80;99.90;;;;;;5003926;28;20468;-64
2023/09/19 03:46:16;;;;;;;1.47;1.13;;;23.80;99.90;;;;;;5001852;28;20453;-64
2023/09/19 03:48:43;;;;;;;1.60;1.20;;;23.80;99.90;;;;;;5003239;28;20460;-64
2023/09/19 03:51:10;;;;;;;1.20;1.10;;;23.80;99.90;;;;;;5003350;28;21081;-64
2023/09/19 03:53:37;;;;;;;1.53;1.37;;;23.80;99.90;;;;;;5004299;28;20921;-62
2023/09/19 03:56:04;;;;;;;1.53;1.30;;;23.80;99.90;;;;;;5004182;28;20464;-62
2023/09/19 03:58:30;;;;;;;1.47;1.20;;;23.80;99.90;;;;;;5000563;28;21271;-62
2023/09/19 04:00:57;;;;;;;1.20;1.00;;;23.80;99.90;;;;;;5002008;28;20491;-62
2023/09/19 04:03:34;;;;;;;1.60;1.17;;;23.70;99.90;;;;;;5004159;28;20569;-65
2023/09/19 04:06:01;;;;;;;2.23;1.40;;;23.80;99.90;;;;;;5002608;28;21080;-62
2023/09/19 04:08:28;;;;;;;1.70;1.30;;;23.80;99.90;;;;;;5002804;28;20497;-64
2023/09/19 04:10:55;;;;;;;1.20;1.10;;;23.80;99.90;;;;;;5002226;28;20518;-64
2023/09/19 04:13:22;;;;;;;1.90;1.60;;;23.80;99.90;;;;;;4997129;28;20838;-64
2023/09/19 04:15:49;;;;;;;1.63;1.10;;;23.70;99.90;;;;;;4998401;28;21249;-64
2023/09/19 04:18:16;;;;;;;1.40;1.30;;;23.70;99.90;;;;;;5003442;28;20610;-63
2023/09/19 04:20:49;;;;;;;1.60;1.50;;;23.70;99.90;;;;;;5002314;28;20452;-64
2023/09/19 04:23:16;;;;;;;1.50;0.90;;;23.70;99.90;;;;;;5003104;28;20467;-63
2023/09/19 04:25:43;;;;;;;2.17;1.60;;;23.70;99.90;;;;;;5001978;28;20465;-64
2023/09/19 04:28:10;;;;;;;1.70;1.53;;;23.70;99.90;;;;;;5001394;28;20509;-64
2023/09/19 04:30:37;;;;;;;2.00;1.50;;;23.70;99.90;;;;;;5001090;28;20468;-64
2023/09/19 04:33:05;;;;;;;1.30;1.20;;;23.70;99.90;;;;;;5003744;28;20473;-64
2023/09/19 04:35:32;;;;;;;1.10;1.00;;;23.70;99.90;;;;;;5003007;28;20460;-64
2023/09/19 04:38:00;;;;;;;1.50;1.40;;;23.70;99.90;;;;;;5003718;28;20459;-64
2023/09/19 04:40:27;;;;;;;1.60;1.10;;;23.70;99.90;;;;;;5002798;28;20453;-64
2023/09/19 04:42:57;;;;;;;1.40;1.20;;;23.70;99.90;;;;;;5002527;28;20467;-64
2023/09/19 04:45:24;;;;;;;1.50;1.20;;;23.70;99.90;;;;;;4997263;28;20544;-63
2023/09/19 04:47:50;;;;;;;1.30;1.10;;;23.70;99.90;;;;;;5002811;28;20464;-64
2023/09/19 04:50:17;;;;;;;1.40;1.10;;;23.70;99.90;;;;;;5001158;28;20463;-64
2023/09/19 04:52:45;;;;;;;1.43;1.30;;;23.70;99.90;;;;;;5003014;28;20492;-63
2023/09/19 04:55:16;;;;;;;2.60;1.20;;;23.70;99.90;;;;;;5003993;28;20509;-64
2023/09/19 04:57:44;;;;;;;1.60;1.03;;;23.70;99.90;;;;;;5005690;28;20550;-64
2023/09/19 05:00:14;;;;;;;1.37;1.07;;;23.60;99.90;;;;;;5006941;28;20492;-64
2023/09/19 05:02:41;;;;;;;1.30;1.10;;;23.70;99.90;;;;;;5007193;28;20498;-64
2023/09/19 05:05:09;;;;;;;1.47;1.27;;;23.70;99.90;;;;;;5006242;28;20955;-64
2023/09/19 05:07:36;;;;;;;1.50;1.10;;;23.70;99.90;;;;;;5002203;28;20463;-64
2023/09/19 05:10:05;;;;;;;1.20;1.10;;;23.70;99.90;;;;;;5001497;28;20459;-64
2023/09/19 05:12:33;;;;;;;1.13;1.03;;;23.60;99.90;;;;;;5006305;28;20465;-64
2023/09/19 05:15:01;;;;;;;1.30;1.20;;;23.70;99.90;;;;;;5005859;28;20470;-64
2023/09/19 05:17:28;;;;;;;1.20;1.10;;;23.70;99.90;;;;;;5004784;28;20477;-64
2023/09/19 05:19:54;;;;;;;1.30;1.20;;;23.70;99.90;;;;;;5005507;28;20476;-64
2023/09/19 05:22:21;;;;;;;1.40;1.00;;;23.60;99.90;;;;;;5006010;28;20474;-64
2023/09/19 05:24:48;;;;;;;1.23;1.00;;;23.70;99.90;;;;;;5002866;28;20471;-64
2023/09/19 05:27:16;;;;;;;1.50;1.40;;;23.60;99.90;;;;;;5005861;28;20471;-64
2023/09/19 05:29:45;;;;;;;1.10;0.97;;;23.60;99.90;;;;;;5004998;28;20466;-64
2023/09/19 05:32:11;;;;;;;1.47;1.37;;;23.60;99.90;;;;;;5006975;28;20463;-64
2023/09/19 05:34:39;;;;;;;1.30;1.20;;;23.60;99.90;;;;;;5002223;28;20487;-64
2023/09/19 05:37:07;;;;;;;1.47;1.13;;;23.60;99.90;;;;;;5005233;28;21191;-64
2023/09/19 05:39:34;;;;;;;1.47;1.10;;;23.60;99.90;;;;;;5003889;28;21272;-62
2023/09/19 05:42:01;;;;;;;1.53;1.10;;;23.60;99.90;;;;;;5006156;28;20465;-63
2023/09/19 05:44:27;;;;;;;1.20;1.00;;;23.60;99.90;;;;;;5003590;28;20998;-62
2023/09/19 05:46:57;;;;;;;1.40;1.10;;;23.60;99.90;;;;;;5008107;28;21567;-64
2023/09/19 05:49:24;;;;;;;1.30;1.20;;;23.60;99.90;;;;;;5005334;28;20478;-62
2023/09/19 05:51:53;;;;;;;1.70;1.60;;;23.60;99.90;;;;;;5006464;28;22165;-62
2023/09/19 05:54:20;;;;;;;1.17;1.03;;;23.60;99.90;;;;;;5006641;28;20508;-65
2023/09/19 05:56:48;;;;;;;1.27;1.10;;;23.60;99.90;;;;;;5004432;28;20509;-62
2023/09/19 05:59:16;;;;;;;1.50;1.27;;;23.60;99.90;;;;;;5004253;28;20567;-65
2023/09/19 06:01:42;;;;;;;1.87;1.33;;;23.60;99.90;;;;;;5004538;28;20525;-64
2023/09/19 06:04:10;;;;;;;1.30;1.20;;;23.60;99.90;;;;;;5007018;28;20474;-65
2023/09/19 06:06:38;;;;;;;1.53;1.10;;;23.60;99.90;;;;;;5005291;28;20989;-64
2023/09/19 06:09:06;;;;;;;1.87;1.17;;;23.60;99.90;;;;;;5003150;28;20458;-65
2023/09/19 06:11:34;;;;;;;1.30;1.20;;;23.60;99.90;;;;;;5006268;28;20459;-63
2023/09/19 06:14:02;;;;;;;1.20;1.00;;;23.60;99.90;;;;;;5005087;28;20490;-63
2023/09/19 06:16:28;;;;;;;1.40;1.20;;;23.60;99.90;;;;;;5002898;28;20466;-63
2023/09/19 06:18:55;;;;;;;1.37;1.23;;;23.60;99.90;;;;;;5006391;28;20465;-64
2023/09/19 06:21:24;;;;;;;1.20;1.10;;;23.60;99.90;;;;;;5003553;28;20998;-63
2023/09/19 06:23:50;;;;;;;1.50;1.00;;;23.60;99.90;;;;;;5003342;28;20470;-63
2023/09/19 06:26:17;;;;;;;1.30;1.00;;;23.60;99.90;;;;;;4996506;28;21230;-65
2023/09/19 06:28:44;;;;;;;1.50;1.10;;;23.60;99.90;;;;;;5001519;28;20459;-65
2023/09/19 06:31:10;;;;;;;2.57;1.30;;;23.60;99.90;;;;;;5003140;28;20983;-67
2023/09/19 06:33:39;;;;;;;5.63;1.20;;;23.60;99.90;;;;;;5001858;28;20473;-65
2023/09/19 06:36:06;;;;;;;5.03;1.80;;;23.60;99.90;;;;;;5000793;28;21137;-65
2023/09/19 06:38:36;;;;;;;6.13;1.83;;;23.60;99.90;;;;;;5002447;28;20468;-65
2023/09/19 06:41:05;;;;;;;7.03;2.20;;;23.50;99.90;;;;;;5001858;28;20460;-65
2023/09/19 06:43:33;;;;;;;9.23;3.03;;;23.50;99.90;;;;;;5002800;28;20961;-63
2023/09/19 06:46:00;;;;;;;7.40;2.57;;;23.50;99.90;;;;;;5004234;28;20466;-65
2023/09/19 06:48:29;;;;;;;5.27;2.37;;;23.40;99.90;;;;;;5004073;28;20537;-64
2023/09/19 06:50:56;;;;;;;6.80;2.13;;;23.40;99.90;;;;;;5005382;28;21007;-63
2023/09/19 06:53:23;;;;;;;9.30;2.70;;;23.40;99.90;;;;;;5007015;28;20479;-64
2023/09/19 06:55:51;;;;;;;6.80;2.30;;;23.30;99.90;;;;;;5004122;28;20998;-65
2023/09/19 06:58:19;;;;;;;5.10;2.23;;;23.30;99.90;;;;;;4997202;28;20514;-63
2023/09/19 07:00:46;;;;;;;4.67;2.40;;;23.30;99.90;;;;;;5000969;28;20548;-65
2023/09/19 07:03:16;;;;;;;4.80;1.80;;;23.30;99.90;;;;;;5005139;28;21030;-65
2023/09/19 07:05:43;;;;;;;7.73;3.07;;;23.20;99.60;;;;;;4996317;28;20498;-66
2023/09/19 07:08:12;;;;;;;7.60;2.13;;;23.30;99.60;;;;;;5000272;28;21045;-66
2023/09/19 07:10:40;;;;;;;5.50;2.30;;;23.20;99.40;;;;;;4998325;28;20467;-65
2023/09/19 07:13:10;;;;;;;8.50;2.70;;;23.20;99.10;;;;;;4997462;28;21172;-63
2023/09/19 07:15:39;;;;;;;11.07;3.90;;;23.20;99.20;;;;;;4999647;28;20529;-65
2023/09/19 07:18:07;;;;;;;8.33;2.93;;;23.10;98.80;;;;;;5003247;28;20467;-65
2023/09/19 07:20:34;;;;;;;7.93;2.60;;;23.10;99.00;;;;;;4995290;28;20459;-65
2023/09/19 07:23:01;;;;;;;8.63;2.60;;;23.10;98.60;;;;;;4999733;28;21383;-65
2023/09/19 07:25:28;;;;;;;6.00;2.33;;;23.10;99.00;;;;;;4999167;28;20466;-65
2023/09/19 07:27:56;;;;;;;6.70;2.53;;;23.10;98.90;;;;;;5006102;28;20925;-65
2023/09/19 07:30:25;;;;;;;6.60;2.47;;;23.10;98.90;;;;;;4997002;28;20466;-65
2023/09/19 07:32:52;;;;;;;4.57;2.40;;;23.10;98.90;;;;;;5003792;28;20467;-65
2023/09/19 07:35:19;;;;;;;8.37;2.40;;;23.10;99.10;;;;;;5001939;28;20882;-65
2023/09/19 07:37:49;;;;;;;5.57;2.40;;;23.10;99.00;;;;;;5000356;28;20940;-65
2023/09/19 07:40:15;;;;;;;7.50;2.30;;;23.10;99.50;;;;;;4997145;28;20462;-65
2023/09/19 07:42:44;;;;;;;6.57;2.43;;;23.10;99.10;;;;;;4998346;28;20465;-65
2023/09/19 07:45:14;;;;;;;9.73;2.70;;;23.10;99.30;;;;;;5000096;28;20605;-65
2023/09/19 07:47:45;;;;;;;6.73;2.53;;;23.10;99.30;;;;;;5000974;28;20991;-65
2023/09/19 07:50:11;;;;;;;8.77;2.27;;;23.10;99.30;;;;;;5001707;28;20473;-65
2023/09/19 07:52:39;;;;;;;3.90;2.13;;;23.10;99.30;;;;;;5000406;28;22283;-65
2023/09/19 07:55:09;;;;;;;3.60;2.00;;;23.10;99.30;;;;;;4999150;28;20617;-65
2023/09/19 07:57:35;;;;;;;2.97;1.60;;;23.10;99.30;;;;;;5001368;28;20917;-65
2023/09/19 08:00:04;;;;;;;11.90;2.40;;;23.10;99.40;;;;;;5003652;28;20462;-64
2023/09/19 08:02:31;;;;;;;4.77;2.37;;;23.10;99.80;;;;;;4992305;28;20537;-66
2023/09/19 08:05:00;;;;;;;8.17;2.27;;;23.10;99.40;;;;;;4992847;28;21067;-63
2023/09/19 08:07:28;;;;;;;6.90;2.40;;;23.10;99.50;;;;;;4981421;28;21096;-65
2023/09/19 08:09:55;;;;;;;8.40;2.77;;;23.10;99.70;;;;;;4999712;28;20459;-66
2023/09/19 08:12:24;;;;;;;5.23;2.30;;;23.10;99.50;;;;;;5000824;28;20463;-65
2023/09/19 08:14:51;;;;;;;4.37;1.70;;;23.10;99.90;;;;;;5004422;28;20487;-63
2023/09/19 08:17:19;;;;;;;7.83;1.97;;;23.20;99.90;;;;;;5002793;28;20510;-66
2023/09/19 08:19:46;;;;;;;7.00;2.57;;;23.20;99.90;;;;;;5001164;28;20460;-66
2023/09/19 08:22:17;;;;;;;5.37;2.30;;;23.20;99.90;;;;;;4995518;28;20823;-66
2023/09/19 08:24:44;;;;;;;5.53;2.30;;;23.20;99.90;;;;;;5001431;28;20659;-65
2023/09/19 08:27:12;;;;;;;6.40;1.90;;;23.20;99.90;;;;;;5001322;28;20943;-67
2023/09/19 08:29:39;;;;;;;3.90;2.00;;;23.20;99.90;;;;;;5002194;28;20550;-67
2023/09/19 08:32:06;;;;;;;4.50;2.00;;;23.30;99.90;;;;;;5001332;28;20459;-69
2023/09/19 08:34:33;;;;;;;9.20;2.30;;;23.20;99.90;;;;;;5003068;28;20495;-67
2023/09/19 08:37:00;;;;;;;4.60;2.83;;;23.30;99.90;;;;;;5001504;28;20462;-69
2023/09/19 08:39:30;;;;;;;6.63;2.10;;;23.30;99.90;;;;;;5006367;28;20460;-65
2023/09/19 08:41:59;;;;;;;4.53;1.83;;;23.30;99.90;;;;;;5005416;28;20460;-67
2023/09/19 08:44:27;;;;;;;6.13;2.67;;;23.30;99.90;;;;;;5002261;28;20546;-65
2023/09/19 08:46:59;;;;;;;7.23;2.70;;;23.40;99.90;;;;;;5004751;28;20467;-68
2023/09/19 08:49:30;;;;;;;5.53;1.87;;;23.40;99.90;;;;;;5001769;28;20460;-71
2023/09/19 08:52:06;;;;;;;8.17;2.87;;;23.40;99.90;;;;;;5003532;28;20455;-71
2023/09/19 08:54:39;;;;;;;4.60;2.43;;;23.40;99.90;;;;;;5005862;28;20931;-63
2023/09/19 08:57:10;;;;;;;5.10;1.90;;;23.40;99.90;;;;;;5004580;28;20457;-66
2023/09/19 08:59:40;;;;;;;4.83;2.00;;;23.40;99.90;;;;;;5006784;28;20787;-64
2023/09/19 09:02:12;;;;;;;6.40;2.37;;;23.50;99.90;;;;;;5001119;28;21365;-65
2023/09/19 09:04:41;;;;;;;4.20;2.20;;;23.50;99.90;;;;;;4999830;28;20809;-66
2023/09/19 09:07:12;;;;;;;3.43;1.73;;;23.50;99.90;;;;;;5003804;28;20754;-64
2023/09/19 09:09:42;;;;;;;8.10;2.20;;;23.50;99.90;;;;;;5003680;28;20460;-65
2023/09/19 09:12:12;;;;;;;7.67;2.70;;;23.50;99.90;;;;;;5003307;28;20598;-67
2023/09/19 09:14:39;;;;;;;5.73;2.50;;;23.50;99.90;;;;;;5002853;28;20591;-69
2023/09/19 09:17:05;;;;;;;8.37;1.73;;;23.50;99.90;;;;;;5002463;28;21324;-67
2023/09/19 09:19:32;;;;;;;4.80;2.80;;;23.50;99.90;;;;;;5001807;28;20826;-70
2023/09/19 09:22:07;;;;;;;4.30;2.40;;;23.50;99.80;;;;;;5005328;28;20468;-71
2023/09/19 09:24:36;;;;;;;9.10;3.40;;;23.50;99.60;;;;;;5005467;28;20468;-71
2023/09/19 09:27:05;;;;;;;6.53;2.70;;;23.50;99.20;;;;;;5007043;28;20497;-70
2023/09/19 09:29:54;;;;;;;4.83;1.80;;;23.60;99.00;;;;;;5000857;28;20472;-64
2023/09/19 09:32:23;;;;;;;9.73;2.70;;;23.60;99.50;;;;;;4995485;28;21099;-65
2023/09/19 09:34:52;;;;;;;5.93;2.87;;;23.60;99.20;;;;;;4992859;28;20838;-62
2023/09/19 09:37:20;;;;;;;5.00;2.23;;;23.60;98.80;;;;;;5000854;28;20819;-65
2023/09/19 09:39:56;;;;;;;7.67;2.53;;;23.60;98.50;;;;;;5001708;28;20478;-64
2023/09/19 09:42:38;;;;;;;8.90;2.33;;;23.60;98.30;;;;;;5004605;28;20464;-65
2023/09/19 09:45:28;;;;;;;5.63;2.63;;;23.60;98.40;;;;;;4997589;28;20468;-63
2023/09/19 09:47:55;;;;;;;6.37;2.10;;;23.60;98.20;;;;;;4997671;28;20485;-63
2023/09/19 09:50:39;;;;;;;7.47;2.90;;;23.60;98.30;;;;;;5000613;28;20493;-65
2023/09/19 09:53:21;;;;;;;8.27;2.87;;;23.60;98.00;;;;;;5000492;28;20462;-64
2023/09/19 09:56:05;;;;;;;6.07;2.47;;;23.60;97.80;;;;;;4994641;28;20920;-68
2023/09/19 09:58:35;;;;;;;9.97;2.73;;;23.60;97.70;;;;;;4998442;28;20814;-67
2023/09/19 10:01:08;;;;;;;7.73;2.03;;;23.70;97.50;;;;;;5002083;28;20464;-65
2023/09/19 10:03:39;;;;;;;7.07;2.37;;;23.70;97.30;;;;;;5001530;28;20591;-68
2023/09/19 10:06:24;;;;;;;7.20;2.40;;;23.60;97.00;;;;;;4986969;28;20468;-67
2023/09/19 10:09:10;;;;;;;9.10;2.93;;;23.60;96.90;;;;;;4999112;28;20827;-67
2023/09/19 10:11:42;;;;;;;4.40;1.73;;;23.70;96.90;;;;;;4998896;28;20464;-66
2023/09/19 10:14:12;;;;;;;9.33;2.10;;;23.70;97.00;;;;;;5004028;28;20470;-68
2023/09/19 10:16:46;;;;;;;6.23;2.47;;;23.70;96.50;;;;;;4985866;28;20505;-64
2023/09/19 10:19:17;;;;;;;7.30;2.33;;;23.70;96.40;;;;;;5000542;28;20919;-62
2023/09/19 10:21:45;;;;;;;5.50;2.87;;;23.70;96.00;;;;;;4998258;28;20632;-64
2023/09/19 10:24:15;;;;;;;7.07;2.90;;;23.70;95.90;;;;;;5001765;28;20559;-62
2023/09/19 10:26:43;;;;;;;7.30;2.20;;;23.70;95.80;;;;;;5004850;28;20575;-63
2023/09/19 10:29:13;;;;;;;6.17;2.77;;;23.70;95.50;;;;;;5001512;28;20552;-61
2023/09/19 10:31:47;;;;;;;9.70;3.50;;;23.70;95.50;;;;;;4994026;28;20465;-60
2023/09/19 10:34:15;;;;;;;7.30;3.00;;;23.70;95.30;;;;;;4989662;28;20461;-62
2023/09/19 10:36:46;;;;;;;5.83;2.60;;;23.80;95.30;;;;;;4996344;28;21832;-61
2023/09/19 10:39:18;;;;;;;7.57;2.47;;;23.80;95.60;;;;;;5000577;28;20527;-62
2023/09/19 10:41:53;;;;;;;6.67;2.77;;;23.80;95.10;;;;;;4998998;28;20620;-60
2023/09/19 10:44:23;;;;;;;4.60;1.87;;;23.80;95.20;;;;;;5002395;28;20472;-60
2023/09/19 10:46:52;;;;;;;6.40;2.30;;;23.80;95.40;;;;;;4995963;28;20457;-63
2023/09/19 10:49:20;;;;;;;6.50;2.30;;;23.80;95.70;;;;;;4996923;28;20469;-63
2023/09/19 10:51:49;;;;;;;4.10;2.10;;;23.90;95.80;;;;;;4994436;28;20473;-67
2023/09/19 10:54:19;;;;;;;10.00;2.47;;;23.90;95.90;;;;;;4994631;28;20461;-65
2023/09/19 10:56:50;;;;;;;9.43;2.53;;;23.90;96.60;;;;;;4999441;28;22066;-66
2023/09/19 10:59:18;;;;;;;7.40;2.40;;;23.90;95.40;;;;;;5001011;28;20460;-63
2023/09/19 11:01:48;;;;;;;7.70;3.43;;;23.90;94.90;;;;;;4995063;28;20508;-66
2023/09/19 11:04:39;;;;;;;6.83;2.33;;;23.90;94.60;;;;;;5001012;28;20501;-64
2023/09/19 11:07:10;;;;;;;9.07;2.70;;;23.90;95.30;;;;;;4974850;28;20461;-67
2023/09/19 11:09:48;;;;;;;6.50;2.60;;;23.90;94.70;;;;;;5000477;28;20823;-64
2023/09/19 11:12:48;;;;;;;7.00;2.53;;;23.90;95.00;;;;;;5000589;28;20497;-70
2023/09/19 11:15:48;;;;;;;7.80;2.70;;;23.90;94.40;;;;;;5000917;28;20934;-68
2023/09/19 11:18:50;;;;;;;7.10;2.43;;;23.90;94.50;;;;;;5002436;28;20461;-68
2023/09/19 11:21:56;;;;;;;9.33;2.43;;;23.90;94.30;;;;;;4998482;28;20809;-73
2023/09/19 11:24:35;;;;;;;11.63;2.53;;;23.90;94.50;;;;;;5000281;28;20460;-68
2023/09/19 11:27:14;;;;;;;14.60;3.13;;;23.90;94.50;;;;;;5003332;28;20818;-69
2023/09/19 11:29:41;;;;;;;7.63;2.70;;;23.90;94.20;;;;;;5003608;28;20474;-69
2023/09/19 11:32:09;;;;;;;10.47;4.30;;;23.80;94.10;;;;;;5002717;28;20468;-71
2023/09/19 11:34:44;;;;;;;9.63;2.80;;;23.90;93.80;;;;;;5002263;28;20575;-69
2023/09/19 11:38:02;;;;;;;10.30;2.63;;;23.90;93.60;;;;;;4999834;28;20459;-68
2023/09/19 11:40:30;;;;;;;12.53;2.73;;;23.90;93.90;;;;;;5000305;28;20456;-70
2023/09/19 11:42:57;;;;;;;8.40;2.50;;;23.90;93.60;;;;;;4998656;28;20687;-70
2023/09/19 11:46:02;;;;;;;8.80;2.90;;;23.90;93.60;;;;;;5002585;28;20457;-70
2023/09/19 11:48:30;;;;;;;8.67;3.37;;;23.90;93.40;;;;;;5002017;28;20470;-67
2023/09/19 11:50:59;;;;;;;7.80;3.00;;;23.90;93.00;;;;;;4999032;28;20831;-67
2023/09/19 11:53:33;;;;;;;6.00;2.50;;;23.90;93.10;;;;;;4998740;28;20871;-67
2023/09/19 11:56:01;;;;;;;6.70;2.47;;;23.90;93.40;;;;;;4986278;28;20479;-66
2023/09/19 11:58:29;;;;;;;4.93;2.30;;;23.90;93.40;;;;;;5001494;28;20977;-71
2023/09/19 12:00:58;;;;;;;4.70;2.00;;;23.90;93.60;;;;;;5002757;28;20464;-66
2023/09/19 12:03:30;;;;;;;6.37;2.43;;;23.90;93.20;;;;;;4998841;28;20472;-65
2023/09/19 12:05:58;;;;;;;7.07;2.57;;;23.90;92.70;;;;;;5000201;28;20524;-65
2023/09/19 12:08:27;;;;;;;9.00;2.93;;;23.90;92.40;;;;;;5000710;28;20513;-67
2023/09/19 12:10:54;;;;;;;6.03;3.00;;;23.90;92.30;;;;;;5002688;28;20539;-67
2023/09/19 12:13:23;;;;;;;5.63;2.10;;;23.90;92.20;;;;;;5002720;28;21031;-67
2023/09/19 12:15:49;;;;;;;5.00;1.80;;;23.90;91.90;;;;;;4996990;28;20486;-67
2023/09/19 12:18:29;;;;;;;6.83;3.27;;;23.90;91.80;;;;;;5000464;28;20974;-69
2023/09/19 12:20:57;;;;;;;6.13;2.53;;;23.90;91.70;;;;;;5003489;28;20947;-67
2023/09/19 12:23:25;;;;;;;5.93;2.53;;;23.90;91.20;;;;;;4999821;28;20580;-65
2023/09/19 12:25:55;;;;;;;9.10;2.87;;;23.90;89.50;;;;;;5000063;28;20463;-66
2023/09/19 12:28:30;;;;;;;5.13;2.43;;;23.90;89.70;;;;;;5001782;28;20586;-67
2023/09/19 12:30:57;;;;;;;7.97;2.40;;;23.90;89.70;;;;;;5002569;28;20460;-69
2023/09/19 12:33:25;;;;;;;6.20;2.50;;;23.90;90.10;;;;;;5001691;28;20474;-67
2023/09/19 12:35:53;;;;;;;7.20;2.60;;;23.90;89.60;;;;;;5003333;28;20606;-66
2023/09/19 12:38:28;;;;;;;2.70;1.80;;;23.90;89.50;;;;;;5002792;28;20466;-71
2023/09/19 12:40:55;;;;;;;9.60;2.77;;;23.90;90.00;;;;;;5001670;28;20461;-67
2023/09/19 12:43:24;;;;;;;4.37;2.20;;;23.90;89.60;;;;;;5000824;28;20462;-66
2023/09/19 12:45:53;;;;;;;9.50;3.00;;;23.90;89.70;;;;;;5002173;28;20462;-67
2023/09/19 12:48:29;;;;;;;2.47;1.80;;;23.90;90.00;;;;;;5004443;28;20474;-64
2023/09/19 12:51:05;;;;;;;6.77;2.00;;;23.90;89.50;;;;;;4985736;28;20477;-66
2023/09/19 12:53:33;;;;;;;7.57;2.30;;;23.90;89.60;;;;;;4981080;28;21102;-66
2023/09/19 12:56:00;;;;;;;9.37;2.40;;;23.90;89.70;;;;;;4982355;28;20485;-68
2023/09/19 12:58:32;;;;;;;4.73;2.30;;;23.90;89.30;;;;;;4982291;28;20446;-68
2023/09/19 13:00:59;;;;;;;5.27;2.03;;;23.90;89.60;;;;;;4976433;28;20649;-68